createdAt,value
2022-12-01T00:01:08.446Z,89.20
2022-12-01T00:03:41.154Z,90.40
2022-12-01T00:06:23.393Z,89.90
2022-12-01T00:09:14.062Z,90.05
2022-12-01T00:11:50.275Z,90.64
2022-12-01T00:14:17.445Z,90.69
2022-12-01T00:16:45.300Z,90.96
2022-12-01T00:19:18.318Z,90.54
2022-12-01T00:21:46.324Z,91.00
2022-12-01T00:24:18.883Z,90.84
2022-12-01T00:26:47.143Z,90.93
2022-12-01T00:29:15.369Z,90.19
2022-12-01T00:31:51.205Z,90.50
2022-12-01T00:34:24.755Z,90.31
2022-12-01T00:36:53.212Z,90.78
2022-12-01T00:39:25.127Z,90.72
2022-12-01T00:41:53.133Z,89.95
2022-12-01T00:44:21.199Z,89.17
2022-12-01T00:47:13.487Z,89.45
2022-12-01T00:49:52.754Z,89.23
2022-12-01T00:52:21.268Z,89.74
2022-12-01T00:54:49.173Z,88.94
2022-12-01T00:57:17.166Z,88.80
2022-12-01T01:00:13.030Z,88.35
2022-12-01T01:02:42.883Z,89.57
2022-12-01T01:05:13.382Z,89.78
2022-12-01T01:07:41.216Z,88.98
2022-12-01T01:10:09.767Z,89.20
2022-12-01T01:12:43.184Z,89.66
2022-12-01T01:15:11.302Z,90.67
2022-12-01T01:17:39.228Z,90.39
2022-12-01T01:20:07.715Z,90.57
2022-12-01T01:25:27.387Z,89.40
2022-12-01T01:27:55.206Z,88.93
2022-12-01T01:30:23.248Z,88.78
2022-12-01T01:32:56.164Z,88.80
2022-12-01T01:35:23.223Z,89.57
2022-12-01T01:37:55.170Z,89.26
2022-12-01T01:40:23.227Z,88.93
2022-12-01T01:43:17.690Z,89.87
2022-12-01T01:45:45.265Z,90.56
2022-12-01T01:48:19.403Z,90.15
2022-12-01T01:50:47.227Z,90.33
2022-12-01T01:53:15.740Z,89.69
2022-12-01T01:59:01.175Z,90.75
2022-12-01T02:01:34.723Z,90.32
2022-12-01T02:04:07.715Z,90.48
2022-12-01T02:06:35.427Z,90.19
2022-12-01T02:09:03.272Z,90.28
2022-12-01T02:11:49.367Z,89.70
2022-12-01T02:14:29.557Z,90.56
2022-12-01T02:17:43.391Z,90.55
2022-12-01T02:20:23.598Z,90.55
2022-12-01T02:23:32.773Z,90.81
2022-12-01T02:26:36.278Z,89.93
2022-12-01T02:30:00.193Z,89.44
2022-12-01T02:33:18.059Z,90.51
2022-12-01T02:36:19.217Z,90.42
2022-12-01T02:39:02.186Z,90.92
2022-12-01T02:41:36.927Z,91.01
2022-12-01T02:44:43.649Z,90.91
2022-12-01T02:47:16.170Z,90.63
2022-12-01T02:49:48.649Z,91.16
2022-12-01T02:52:19.603Z,90.29
2022-12-01T02:54:48.430Z,90.13
2022-12-01T02:57:16.309Z,89.93
2022-12-01T02:59:52.341Z,89.95
2022-12-01T03:02:58.539Z,89.53
2022-12-01T03:05:35.834Z,89.65
2022-12-01T03:09:00.411Z,89.45
2022-12-01T03:11:39.241Z,89.66
2022-12-01T03:14:36.194Z,89.30
2022-12-01T03:20:12.626Z,89.96
2022-12-01T03:22:58.684Z,89.23
2022-12-01T03:25:29.090Z,90.12
2022-12-01T03:28:20.762Z,90.31
2022-12-01T03:31:22.854Z,90.68
2022-12-01T03:33:57.349Z,90.08
2022-12-01T03:36:30.253Z,89.82
2022-12-01T03:39:00.517Z,89.57
2022-12-01T03:41:36.621Z,89.83
2022-12-01T03:44:16.847Z,89.73
2022-12-01T03:47:25.120Z,89.24
2022-12-01T03:49:54.189Z,89.06
2022-12-01T03:53:10.902Z,89.28
2022-12-01T03:55:42.456Z,89.05
2022-12-01T03:58:21.161Z,89.26
2022-12-01T04:00:53.147Z,89.65
2022-12-01T04:03:31.293Z,90.25
2022-12-01T04:05:59.576Z,89.45
2022-12-01T04:08:27.289Z,88.92
2022-12-01T04:10:55.133Z,89.25
2022-12-01T04:13:28.461Z,89.97
2022-12-01T04:15:55.577Z,89.70
2022-12-01T04:18:23.144Z,89.77
2022-12-01T04:21:16.895Z,89.36
2022-12-01T04:24:14.368Z,89.55
2022-12-01T04:26:42.101Z,88.98
2022-12-01T04:29:11.067Z,89.52
2022-12-01T04:31:43.198Z,89.93
2022-12-01T04:34:11.403Z,90.12
2022-12-01T04:36:43.175Z,89.16
2022-12-01T04:39:11.140Z,89.73
2022-12-01T04:41:39.312Z,89.34
2022-12-01T04:44:07.163Z,88.75
2022-12-01T04:46:35.148Z,88.41
2022-12-01T04:49:07.235Z,88.11
2022-12-01T04:51:40.201Z,88.05
2022-12-01T04:54:18.751Z,88.02
2022-12-01T04:56:47.176Z,87.98
2022-12-01T04:59:15.637Z,87.67
2022-12-01T05:01:43.311Z,87.93
2022-12-01T05:04:13.347Z,87.62
2022-12-01T05:06:41.327Z,87.84
2022-12-01T05:09:17.096Z,87.60
2022-12-01T05:11:45.178Z,88.03
2022-12-01T05:14:13.206Z,88.23
2022-12-01T05:16:41.289Z,87.74
2022-12-01T05:22:56.855Z,88.43
2022-12-01T05:25:11.167Z,88.06
2022-12-01T05:28:05.233Z,87.76
2022-12-01T05:30:33.255Z,87.71
2022-12-01T05:33:01.222Z,88.85
2022-12-01T05:35:29.198Z,88.41
2022-12-01T05:37:57.128Z,88.23
2022-12-01T05:40:25.231Z,87.78
2022-12-01T05:42:53.353Z,87.86
2022-12-01T05:45:21.140Z,87.82
2022-12-01T05:47:49.187Z,87.51
2022-12-01T05:50:17.323Z,87.60
2022-12-01T05:52:45.140Z,87.83
2022-12-01T05:55:13.211Z,87.27
2022-12-01T05:57:41.170Z,87.16
2022-12-01T06:00:10.241Z,87.88
2022-12-01T06:02:41.808Z,87.62
2022-12-01T06:05:09.647Z,87.35
2022-12-01T06:07:40.119Z,87.17
2022-12-01T06:10:09.190Z,87.33
2022-12-01T06:15:29.190Z,86.84
2022-12-01T06:18:00.242Z,86.90
2022-12-01T06:20:27.227Z,86.92
2022-12-01T06:22:55.162Z,87.07
2022-12-01T06:28:39.175Z,87.53
2022-12-01T06:31:07.264Z,87.30
2022-12-01T06:33:35.360Z,87.15
2022-12-01T06:36:05.959Z,88.37
2022-12-01T06:38:34.844Z,87.66
2022-12-01T06:41:03.855Z,87.33
2022-12-01T06:43:31.609Z,86.91
2022-12-01T06:48:57.363Z,87.28
2022-12-01T06:54:41.155Z,87.63
2022-12-01T06:57:09.142Z,87.31
2022-12-01T06:59:42.191Z,87.39
2022-12-01T07:02:16.996Z,87.98
2022-12-01T07:04:45.213Z,87.62
2022-12-01T07:07:13.207Z,87.50
2022-12-01T07:09:41.252Z,87.34
2022-12-01T07:12:33.219Z,87.28
2022-12-01T07:15:06.876Z,87.12
2022-12-01T07:23:19.172Z,87.74
2022-12-01T07:25:47.261Z,87.53
2022-12-01T07:28:15.168Z,87.89
2022-12-01T07:30:43.221Z,87.83
2022-12-01T07:33:11.225Z,87.33
2022-12-01T07:35:44.197Z,87.22
2022-12-01T07:38:21.927Z,87.61
2022-12-01T07:40:49.334Z,88.12
2022-12-01T07:43:17.176Z,87.33
2022-12-01T07:45:45.445Z,87.16
2022-12-01T07:48:13.211Z,87.02
2022-12-01T07:50:41.208Z,86.74
2022-12-01T07:53:09.181Z,87.84
2022-12-01T07:55:37.210Z,87.29
2022-12-01T07:58:30.186Z,87.10
2022-12-01T08:01:03.850Z,87.50
2022-12-01T08:03:31.156Z,86.94
2022-12-01T08:06:05.888Z,87.60
2022-12-01T08:08:35.400Z,87.24
2022-12-01T08:14:18.255Z,86.50
2022-12-01T08:16:51.579Z,86.83
2022-12-01T08:19:19.245Z,86.64
2022-12-01T08:21:47.136Z,86.84
2022-12-01T08:24:20.232Z,86.78
2022-12-01T08:26:47.172Z,86.91
2022-12-01T08:29:19.939Z,86.19
2022-12-01T08:32:13.194Z,86.06
2022-12-01T08:34:41.458Z,86.20
2022-12-01T08:37:09.393Z,85.77
2022-12-01T08:39:37.227Z,85.96
2022-12-01T08:42:06.200Z,86.18
2022-12-01T08:44:41.060Z,86.72
2022-12-01T08:47:11.170Z,86.25
2022-12-01T08:49:41.174Z,86.51
2022-12-01T08:52:09.170Z,86.89
2022-12-01T08:54:37.211Z,86.61
2022-12-01T08:57:05.196Z,86.24
2022-12-01T09:02:25.344Z,86.14
2022-12-01T09:04:53.283Z,86.24
2022-12-01T09:07:30.428Z,86.18
2022-12-01T09:10:02.220Z,86.48
2022-12-01T09:12:29.710Z,86.36
2022-12-01T09:14:57.236Z,85.49
2022-12-01T09:17:25.180Z,85.95
2022-12-01T09:19:58.193Z,85.89
2022-12-01T09:22:31.151Z,86.15
2022-12-01T09:27:56.230Z,85.73
2022-12-01T09:30:23.135Z,85.64
2022-12-01T09:32:51.159Z,86.27
2022-12-01T09:35:23.655Z,86.31
2022-12-01T09:37:51.165Z,85.22
2022-12-01T09:40:19.331Z,85.95
2022-12-01T09:42:49.310Z,86.84
2022-12-01T09:45:30.923Z,86.00
2022-12-01T09:48:07.726Z,86.88
2022-12-01T09:50:37.679Z,86.84
2022-12-01T09:53:13.987Z,86.68
2022-12-01T09:55:41.160Z,86.84
2022-12-01T09:58:16.620Z,86.82
2022-12-01T10:00:46.415Z,86.29
2022-12-01T10:03:45.505Z,86.39
2022-12-01T10:06:32.298Z,86.82
2022-12-01T10:09:19.503Z,87.32
2022-12-01T10:11:48.431Z,87.60
2022-12-01T10:14:23.078Z,86.70
2022-12-01T10:17:20.224Z,86.15
2022-12-01T10:20:35.760Z,86.28
2022-12-01T10:23:22.839Z,85.90
2022-12-01T10:26:04.916Z,86.54
2022-12-01T10:29:00.443Z,85.82
2022-12-01T10:31:42.428Z,86.04
2022-12-01T10:34:40.650Z,85.55
2022-12-01T10:37:18.692Z,86.35
2022-12-01T10:40:21.334Z,84.85
2022-12-01T10:42:50.783Z,85.11
2022-12-01T10:45:26.392Z,84.20
2022-12-01T10:48:40.691Z,84.72
2022-12-01T10:51:17.384Z,86.11
2022-12-01T10:54:08.056Z,86.96
2022-12-01T10:56:40.201Z,86.90
2022-12-01T10:59:39.704Z,87.31
2022-12-01T11:02:20.354Z,87.36
2022-12-01T11:05:24.588Z,86.82
2022-12-01T11:08:23.065Z,87.78
2022-12-01T11:10:52.148Z,88.63
2022-12-01T11:13:30.563Z,87.49
2022-12-01T11:16:01.924Z,87.99
2022-12-01T11:18:36.428Z,88.02
2022-12-01T11:21:29.230Z,87.75
2022-12-01T11:24:42.698Z,87.20
2022-12-01T11:27:39.385Z,86.88
2022-12-01T11:30:25.347Z,86.91
2022-12-01T11:32:56.512Z,87.15
2022-12-01T11:35:35.925Z,87.77
2022-12-01T11:38:29.424Z,87.10
2022-12-01T11:40:58.046Z,87.03
2022-12-01T11:43:37.285Z,86.49
2022-12-01T11:46:08.424Z,86.29
2022-12-01T11:48:36.391Z,85.35
2022-12-01T11:51:33.036Z,85.85
2022-12-01T11:57:48.148Z,85.14
2022-12-01T12:03:50.189Z,85.77
2022-12-01T12:06:41.675Z,85.72
2022-12-01T12:09:31.097Z,85.05
2022-12-01T12:12:54.257Z,85.90
2022-12-01T12:15:36.529Z,85.36
2022-12-01T12:18:51.271Z,84.67
2022-12-01T12:22:00.000Z,85.77
2022-12-01T12:24:33.107Z,86.02
2022-12-01T12:27:30.292Z,85.31
2022-12-01T12:30:18.041Z,85.89
2022-12-01T12:33:14.319Z,86.02
2022-12-01T12:36:08.844Z,86.53
2022-12-01T12:39:16.386Z,87.59
2022-12-01T12:42:34.879Z,86.35
2022-12-01T12:45:27.263Z,86.34
2022-12-01T12:48:18.533Z,86.53
2022-12-01T12:54:52.191Z,85.85
2022-12-01T13:00:34.944Z,86.13
2022-12-01T13:03:34.198Z,85.24
2022-12-01T13:06:13.287Z,85.73
2022-12-01T13:08:51.176Z,85.82
2022-12-01T13:11:50.765Z,85.80
2022-12-01T13:17:27.872Z,85.80
2022-12-01T13:19:55.428Z,85.69
2022-12-01T13:22:29.777Z,85.98
2022-12-01T13:24:57.254Z,85.84
2022-12-01T13:27:28.415Z,86.26
2022-12-01T13:32:49.920Z,87.81
2022-12-01T13:35:34.151Z,86.95
2022-12-01T13:38:26.969Z,86.62
2022-12-01T13:41:22.685Z,86.00
2022-12-01T13:46:47.223Z,86.72
2022-12-01T13:49:45.991Z,86.23
2022-12-01T13:52:22.913Z,85.94
2022-12-01T13:55:09.592Z,86.26
2022-12-01T13:57:44.122Z,85.65
2022-12-01T14:00:27.123Z,85.95
2022-12-01T14:03:13.583Z,86.61
2022-12-01T14:05:53.516Z,86.43
2022-12-01T14:08:28.863Z,85.90
2022-12-01T14:11:03.186Z,85.19
2022-12-01T14:14:05.793Z,85.87
2022-12-01T14:16:53.179Z,86.55
2022-12-01T14:22:45.276Z,86.40
2022-12-01T14:25:25.796Z,86.02
2022-12-01T14:28:02.460Z,85.60
2022-12-01T14:30:45.632Z,85.17
2022-12-01T14:36:53.231Z,84.62
2022-12-01T14:39:30.731Z,85.16
2022-12-01T14:45:40.039Z,85.33
2022-12-01T14:48:14.904Z,85.53
2022-12-01T14:51:00.790Z,84.83
2022-12-01T14:53:36.155Z,85.61
2022-12-01T14:56:14.030Z,86.03
2022-12-01T14:58:52.771Z,86.21
2022-12-01T15:01:23.071Z,85.99
2022-12-01T15:04:01.322Z,85.88
2022-12-01T15:06:30.800Z,85.24
2022-12-01T15:09:33.348Z,85.30
2022-12-01T15:12:31.996Z,86.02
2022-12-01T15:15:15.556Z,85.38
2022-12-01T15:17:45.503Z,85.79
2022-12-01T15:20:35.614Z,85.40
2022-12-01T15:23:12.827Z,85.46
2022-12-01T15:25:46.378Z,85.25
2022-12-01T15:28:19.067Z,85.12
2022-12-01T15:30:53.564Z,85.41
2022-12-01T15:33:27.845Z,86.61
2022-12-01T15:35:58.776Z,86.16
2022-12-01T15:38:31.120Z,85.84
2022-12-01T15:44:01.893Z,86.18
2022-12-01T15:46:31.515Z,85.63
2022-12-01T15:49:18.404Z,86.23
2022-12-01T15:51:47.285Z,85.65
2022-12-01T15:54:19.583Z,86.40
2022-12-01T15:56:58.562Z,85.74
2022-12-01T16:02:39.793Z,86.29
2022-12-01T16:05:12.959Z,85.73
2022-12-01T16:10:35.347Z,87.26
2022-12-01T16:13:40.963Z,87.00
2022-12-01T16:16:40.152Z,86.74
2022-12-01T16:19:10.256Z,87.50
2022-12-01T16:21:54.501Z,88.05
2022-12-01T16:30:26.250Z,86.44
2022-12-01T16:36:15.870Z,87.50
2022-12-01T16:38:43.298Z,86.69
2022-12-01T16:41:17.775Z,86.27
2022-12-01T16:43:59.412Z,86.15
2022-12-01T16:46:37.342Z,86.32
2022-12-01T16:49:56.310Z,86.60
2022-12-01T16:55:36.521Z,87.25
2022-12-01T16:58:03.334Z,87.41
2022-12-01T17:00:31.328Z,86.62
2022-12-01T17:03:00.065Z,86.40
2022-12-01T17:05:27.796Z,86.20
2022-12-01T17:07:55.655Z,87.00
2022-12-01T17:13:15.226Z,85.95
2022-12-01T17:15:47.871Z,86.58
2022-12-01T17:18:22.238Z,86.28
2022-12-01T17:21:01.004Z,86.18
2022-12-01T17:23:34.084Z,86.32
2022-12-01T17:26:01.369Z,86.13
2022-12-01T17:28:29.168Z,85.54
2022-12-01T17:31:00.604Z,85.34
2022-12-01T17:33:29.340Z,85.23
2022-12-01T17:36:12.544Z,85.45
2022-12-01T17:38:47.966Z,85.30
2022-12-01T17:41:18.577Z,84.96
2022-12-01T17:43:47.545Z,85.24
2022-12-01T17:46:15.317Z,85.11
2022-12-01T17:48:47.404Z,85.68
2022-12-01T17:51:15.616Z,85.73
2022-12-01T17:53:43.191Z,86.14
2022-12-01T17:56:13.950Z,86.04
2022-12-01T17:58:41.715Z,86.19
2022-12-01T18:01:17.337Z,85.94
2022-12-01T18:06:39.536Z,85.42
2022-12-01T18:09:07.494Z,84.59
2022-12-01T18:11:44.211Z,84.91
2022-12-01T18:14:11.412Z,84.61
2022-12-01T18:16:39.334Z,84.97
2022-12-01T18:19:07.214Z,84.69
2022-12-01T18:24:32.164Z,85.37
2022-12-01T18:26:59.200Z,84.36
2022-12-01T18:29:28.598Z,84.64
2022-12-01T18:31:59.261Z,85.55
2022-12-01T18:34:29.707Z,86.40
2022-12-01T18:37:23.228Z,86.11
2022-12-01T18:43:07.232Z,86.41
2022-12-01T18:45:40.207Z,86.97
2022-12-01T18:51:08.358Z,87.38
2022-12-01T18:57:00.051Z,87.84
2022-12-01T18:59:29.472Z,88.85
2022-12-01T19:01:57.327Z,88.45
2022-12-01T19:04:25.152Z,88.52
2022-12-01T19:06:58.226Z,88.65
2022-12-01T19:09:25.152Z,88.27
2022-12-01T19:11:59.782Z,88.47
2022-12-01T19:14:54.205Z,88.72
2022-12-01T19:17:23.207Z,88.20
2022-12-01T19:19:55.172Z,87.45
2022-12-01T19:22:28.200Z,88.18
2022-12-01T19:24:55.564Z,88.36
2022-12-01T19:27:23.263Z,88.80
2022-12-01T19:30:18.194Z,88.87
2022-12-01T19:32:45.407Z,88.57
2022-12-01T19:35:18.185Z,88.06
2022-12-01T19:37:45.943Z,87.26
2022-12-01T19:40:13.704Z,86.10
2022-12-01T19:42:42.100Z,85.90
2022-12-01T19:45:09.697Z,85.73
2022-12-01T19:47:37.622Z,85.74
2022-12-01T19:50:05.918Z,85.58
2022-12-01T19:52:39.058Z,85.97
2022-12-01T19:55:11.876Z,85.83
2022-12-01T19:57:45.183Z,85.76
2022-12-01T20:00:18.560Z,85.82
2022-12-01T20:02:47.588Z,85.50
2022-12-01T20:08:07.319Z,86.15
2022-12-01T20:10:40.184Z,85.75
2022-12-01T20:13:13.244Z,86.91
2022-12-01T20:16:11.630Z,87.21
2022-12-01T20:18:40.439Z,87.28
2022-12-01T20:21:12.621Z,86.72
2022-12-01T20:23:41.189Z,86.76
2022-12-01T20:26:10.460Z,86.37
2022-12-01T20:31:32.726Z,87.11
2022-12-01T20:34:06.538Z,85.95
2022-12-01T20:36:36.192Z,85.94
2022-12-01T20:39:04.598Z,85.81
2022-12-01T20:41:33.845Z,85.32
2022-12-01T20:44:26.739Z,85.03
2022-12-01T20:46:59.952Z,85.47
2022-12-01T20:49:27.350Z,87.07
2022-12-01T20:51:55.296Z,87.89
2022-12-01T20:57:15.611Z,85.82
2022-12-01T20:59:43.188Z,85.88
2022-12-01T21:02:11.259Z,85.27
2022-12-01T21:04:43.240Z,86.74
2022-12-01T21:07:11.222Z,86.63
2022-12-01T21:09:39.356Z,86.25
2022-12-01T21:12:51.284Z,85.67
2022-12-01T21:15:25.771Z,86.79
2022-12-01T21:17:57.153Z,85.60
2022-12-01T21:20:40.968Z,85.33
2022-12-01T21:23:11.625Z,85.29
2022-12-01T21:25:40.543Z,85.33
2022-12-01T21:28:20.791Z,86.36
2022-12-01T21:30:51.309Z,87.21
2022-12-01T21:33:31.470Z,87.78
2022-12-01T21:36:01.916Z,87.12
2022-12-01T21:38:31.800Z,87.41
2022-12-01T21:41:30.314Z,87.20
2022-12-01T21:44:02.695Z,86.47
2022-12-01T21:46:31.805Z,86.14
2022-12-01T21:52:41.805Z,86.76
2022-12-01T21:55:29.269Z,86.33
2022-12-01T21:58:02.175Z,86.37
2022-12-01T22:00:30.994Z,85.52
2022-12-01T22:03:08.335Z,85.47
2022-12-01T22:06:06.891Z,85.65
2022-12-01T22:09:11.672Z,85.57
2022-12-01T22:11:39.223Z,85.24
2022-12-01T22:14:18.480Z,85.72
2022-12-01T22:19:59.707Z,84.62
2022-12-01T22:22:34.332Z,86.30
2022-12-01T22:25:30.016Z,86.77
2022-12-01T22:27:59.955Z,86.10
2022-12-01T22:30:27.185Z,87.09
2022-12-01T22:33:10.351Z,87.33
2022-12-01T22:36:19.899Z,86.67
2022-12-01T22:41:39.182Z,86.27
2022-12-01T22:44:12.409Z,86.42
2022-12-01T22:46:42.135Z,86.92
2022-12-01T22:52:30.123Z,86.38
2022-12-01T22:55:19.467Z,86.17
2022-12-01T22:57:47.279Z,85.28
2022-12-01T23:00:17.886Z,85.03
2022-12-01T23:02:48.561Z,85.02
2022-12-01T23:08:23.593Z,85.91
2022-12-01T23:10:52.117Z,85.91
2022-12-01T23:13:23.804Z,84.66
2022-12-01T23:15:55.455Z,85.87
2022-12-01T23:18:26.531Z,84.84
2022-12-01T23:20:57.550Z,85.32
2022-12-01T23:23:31.676Z,85.04
2022-12-01T23:26:02.210Z,84.77
2022-12-01T23:28:32.645Z,85.07
2022-12-01T23:31:05.557Z,84.64
2022-12-01T23:33:34.397Z,84.91
2022-12-01T23:36:33.725Z,84.34
2022-12-01T23:39:04.561Z,85.05
2022-12-01T23:44:42.209Z,86.73
2022-12-01T23:47:44.344Z,87.37
2022-12-01T23:50:19.078Z,86.40
2022-12-01T23:52:52.005Z,87.34
2022-12-01T23:55:27.603Z,86.72
2022-12-01T23:57:55.767Z,87.13
